Time;durP1;ratioP1;P1;durP2;ratioP2;P2;SDS_P1;SDS_P2;PMS_P1;PMS_P2;Temp;Humidity;BMP_temperature;BMP_pressure;BME280_temperature;BME280_humidity;BME280_pressure;Samples;Min_cycle;Max_cycle;Signal;HPM_P1;HPM_P2
2022/02/12 00:00:41;;;;;;;69.22;50.40;;;;;;;;;;4987057;28;20046;-70
2022/02/12 00:03:07;;;;;;;73.32;49.88;;;;;;;;;;4990506;28;20018;-70
2022/02/12 00:05:34;;;;;;;70.43;51.13;;;;;;;;;;4974046;28;20031;-70
2022/02/12 00:08:00;;;;;;;71.05;49.63;;;;;;;;;;4971041;28;20023;-70
2022/02/12 00:10:27;;;;;;;75.30;52.33;;;;;;;;;;4984847;28;20491;-70
2022/02/12 00:12:53;;;;;;;74.80;49.85;;;;;;;;;;4989175;28;20168;-70
2022/02/12 00:15:19;;;;;;;72.90;50.22;;;;;;;;;;4989282;28;20026;-70
2022/02/12 00:17:46;;;;;;;70.00;48.90;;;;;;;;;;4988292;28;20034;-70
2022/02/12 00:20:12;;;;;;;64.65;46.63;;;;;;;;;;4969530;28;20039;-70
2022/02/12 00:22:39;;;;;;;67.18;46.40;;;;;;;;;;4974438;28;20023;-70
2022/02/12 00:25:05;;;;;;;69.45;48.53;;;;;;;;;;4988823;28;20033;-70
2022/02/12 00:27:31;;;;;;;66.25;46.25;;;;;;;;;;4990197;28;20097;-70
2022/02/12 00:29:57;;;;;;;66.30;47.22;;;;;;;;;;4990268;28;20104;-70
2022/02/12 00:32:24;;;;;;;67.80;45.83;;;;;;;;;;4993577;28;20030;-70
2022/02/12 00:34:50;;;;;;;63.83;45.13;;;;;;;;;;4992404;28;20573;-70
2022/02/12 00:37:16;;;;;;;60.20;44.07;;;;;;;;;;4993557;28;20027;-70
2022/02/12 00:39:42;;;;;;;60.90;43.45;;;;;;;;;;4991528;28;20068;-70
2022/02/12 00:42:08;;;;;;;58.47;44.53;;;;;;;;;;4993392;28;20035;-70
2022/02/12 00:44:35;;;;;;;60.83;44.73;;;;;;;;;;4992121;28;20031;-70
2022/02/12 00:47:01;;;;;;;60.87;43.93;;;;;;;;;;4986505;28;20057;-70
2022/02/12 00:49:27;;;;;;;61.80;44.72;;;;;;;;;;4978302;28;20026;-70
2022/02/12 00:51:53;;;;;;;67.50;44.43;;;;;;;;;;4993311;28;20041;-70
2022/02/12 00:54:20;;;;;;;68.33;44.50;;;;;;;;;;4992253;28;20034;-70
2022/02/12 00:56:46;;;;;;;64.50;44.03;;;;;;;;;;4991914;28;20070;-70
2022/02/12 00:59:12;;;;;;;65.03;43.53;;;;;;;;;;4990486;28;20038;-70
2022/02/12 01:01:38;;;;;;;60.07;43.73;;;;;;;;;;4984383;28;20476;-70
2022/02/12 01:10:11;;;;;;;66.77;43.63;;;;;;;;;;4990117;28;20088;-70
2022/02/12 01:12:37;;;;;;;61.60;40.37;;;;;;;;;;4992893;28;20034;-70
2022/02/12 01:15:04;;;;;;;68.03;42.00;;;;;;;;;;4989133;28;20029;-70
2022/02/12 01:17:30;;;;;;;64.87;41.90;;;;;;;;;;4988642;28;20039;-70
2022/02/12 01:19:57;;;;;;;59.83;40.83;;;;;;;;;;4973589;28;20066;-71
2022/02/12 01:22:24;;;;;;;49.67;33.93;;;;;;;;;;4975719;28;20038;-70
2022/02/12 01:24:50;;;;;;;45.20;31.93;;;;;;;;;;4992672;28;20042;-70
2022/02/12 01:27:17;;;;;;;48.53;32.03;;;;;;;;;;4991505;28;20027;-70
2022/02/12 01:29:43;;;;;;;47.10;32.20;;;;;;;;;;4992391;28;20058;-70
2022/02/12 01:32:09;;;;;;;48.87;32.97;;;;;;;;;;4991328;28;20443;-70
2022/02/12 01:34:36;;;;;;;46.83;30.40;;;;;;;;;;4992494;28;20133;-70
2022/02/12 01:37:03;;;;;;;52.93;33.77;;;;;;;;;;4981766;28;20037;-70
2022/02/12 01:39:29;;;;;;;48.73;32.10;;;;;;;;;;4991709;28;20046;-70
2022/02/12 01:41:55;;;;;;;46.27;31.73;;;;;;;;;;4991670;28;20495;-70
2022/02/12 01:44:33;;;;;;;41.10;29.58;;;;;;;;;;4990411;28;20037;-70
2022/02/12 01:46:59;;;;;;;41.63;29.93;;;;;;;;;;4991135;28;20027;-70
2022/02/12 01:49:25;;;;;;;42.10;29.00;;;;;;;;;;4990931;28;20039;-70
2022/02/12 01:51:52;;;;;;;43.50;28.63;;;;;;;;;;4992287;28;20034;-70
2022/02/12 01:54:18;;;;;;;43.53;28.33;;;;;;;;;;4990078;28;20472;-70
2022/02/12 01:56:51;;;;;;;43.00;28.73;;;;;;;;;;4990982;28;20130;-70
2022/02/12 01:59:17;;;;;;;36.83;25.87;;;;;;;;;;4990997;28;20039;-70
2022/02/12 02:01:43;;;;;;;36.90;26.03;;;;;;;;;;4990803;28;20034;-70
2022/02/12 02:04:09;;;;;;;39.57;26.70;;;;;;;;;;4990798;28;20041;-70
2022/02/12 02:06:35;;;;;;;38.60;26.40;;;;;;;;;;4992090;28;20027;-70
2022/02/12 02:09:03;;;;;;;41.43;26.73;;;;;;;;;;4976890;28;20027;-70
2022/02/12 02:11:30;;;;;;;38.87;27.60;;;;;;;;;;4975532;28;20113;-70
2022/02/12 02:13:56;;;;;;;38.17;26.43;;;;;;;;;;4989503;28;20022;-70
2022/02/12 02:16:22;;;;;;;38.53;27.13;;;;;;;;;;4991959;28;20079;-70
2022/02/12 02:18:48;;;;;;;36.20;26.53;;;;;;;;;;4989697;28;20062;-70
2022/02/12 02:21:16;;;;;;;41.70;28.00;;;;;;;;;;4991830;28;20096;-70
2022/02/12 02:23:42;;;;;;;41.83;27.50;;;;;;;;;;4984586;28;20372;-70
2022/02/12 02:26:09;;;;;;;34.20;23.67;;;;;;;;;;4972315;28;20380;-70
2022/02/12 02:28:35;;;;;;;32.57;22.57;;;;;;;;;;4976787;28;20042;-70
2022/02/12 02:31:01;;;;;;;27.50;20.43;;;;;;;;;;4990684;28;20030;-70
2022/02/12 02:33:27;;;;;;;25.87;17.47;;;;;;;;;;4990383;28;20033;-71
2022/02/12 02:35:53;;;;;;;21.43;15.63;;;;;;;;;;4993478;28;20022;-70
2022/02/12 02:38:20;;;;;;;21.13;14.50;;;;;;;;;;4988486;28;20507;-70
2022/02/12 02:40:46;;;;;;;24.37;14.60;;;;;;;;;;4990730;28;20038;-70
2022/02/12 02:43:12;;;;;;;20.50;13.23;;;;;;;;;;4988908;28;20026;-70
2022/02/12 02:45:39;;;;;;;17.47;12.87;;;;;;;;;;4991402;28;20099;-70
2022/02/12 02:48:08;;;;;;;21.93;13.33;;;;;;;;;;4990726;28;20027;-70
2022/02/12 02:56:04;;;;;;;19.13;12.45;;;;;;;;;;4991839;28;20122;-70
2022/02/12 02:58:32;;;;;;;20.57;11.80;;;;;;;;;;4979199;28;20030;-70
2022/02/12 03:00:59;;;;;;;18.67;12.30;;;;;;;;;;4991253;28;20044;-70
2022/02/12 03:03:25;;;;;;;15.97;12.00;;;;;;;;;;4978086;28;20069;-70
2022/02/12 03:05:51;;;;;;;15.77;11.93;;;;;;;;;;4991543;28;20030;-70
2022/02/12 03:08:17;;;;;;;18.57;12.00;;;;;;;;;;4990798;28;20026;-70
2022/02/12 03:10:43;;;;;;;19.90;13.57;;;;;;;;;;4985499;28;20041;-70
2022/02/12 03:13:09;;;;;;;19.60;13.33;;;;;;;;;;4990710;28;20030;-70
2022/02/12 03:15:40;;;;;;;21.57;13.73;;;;;;;;;;4987078;28;20120;-69
2022/02/12 03:18:06;;;;;;;22.10;13.70;;;;;;;;;;4970257;28;20392;-70
2022/02/12 03:20:32;;;;;;;21.03;15.03;;;;;;;;;;4990338;28;20107;-70
2022/02/12 03:22:58;;;;;;;25.80;15.37;;;;;;;;;;4984886;28;20034;-70
2022/02/12 03:25:24;;;;;;;20.50;16.03;;;;;;;;;;4990350;28;20365;-70
2022/02/12 03:27:58;;;;;;;24.07;17.43;;;;;;;;;;4990837;28;20036;-70
2022/02/12 03:30:46;;;;;;;23.67;15.17;;;;;;;;;;4988784;28;20045;-70
2022/02/12 03:33:12;;;;;;;22.57;16.07;;;;;;;;;;4990888;28;20018;-70
2022/02/12 03:35:39;;;;;;;21.47;16.00;;;;;;;;;;4977058;28;20052;-70
2022/02/12 03:38:08;;;;;;;24.40;16.67;;;;;;;;;;4990854;28;20495;-70
2022/02/12 03:40:34;;;;;;;25.30;17.30;;;;;;;;;;4989601;28;20121;-70
2022/02/12 03:43:00;;;;;;;28.00;17.97;;;;;;;;;;4991111;28;20418;-70
2022/02/12 03:45:26;;;;;;;31.27;18.90;;;;;;;;;;4989588;28;20535;-70
2022/02/12 03:47:52;;;;;;;31.10;19.53;;;;;;;;;;4989561;28;20114;-70
2022/02/12 03:50:18;;;;;;;26.53;19.23;;;;;;;;;;4989559;28;20042;-70
2022/02/12 03:52:44;;;;;;;31.97;19.27;;;;;;;;;;4990556;28;20026;-71
2022/02/12 03:55:11;;;;;;;30.43;19.07;;;;;;;;;;4989741;28;20029;-71
2022/02/12 03:57:37;;;;;;;33.33;22.00;;;;;;;;;;4990990;28;20026;-70
2022/02/12 04:00:05;;;;;;;33.73;22.70;;;;;;;;;;4989203;28;20043;-71
2022/02/12 04:02:31;;;;;;;30.23;21.83;;;;;;;;;;4990562;28;20033;-71
2022/02/12 04:04:57;;;;;;;29.17;21.17;;;;;;;;;;4980167;28;20039;-71
2022/02/12 04:07:23;;;;;;;34.13;23.60;;;;;;;;;;4975110;28;20426;-71
2022/02/12 04:09:49;;;;;;;36.13;23.73;;;;;;;;;;4984305;28;20117;-71
2022/02/12 04:12:15;;;;;;;35.77;24.23;;;;;;;;;;4994234;28;20087;-70
2022/02/12 04:14:41;;;;;;;35.70;24.67;;;;;;;;;;4983137;28;20045;-70
2022/02/12 04:17:07;;;;;;;40.83;23.53;;;;;;;;;;4974462;28;20019;-70
2022/02/12 04:19:33;;;;;;;37.50;23.70;;;;;;;;;;4981568;28;20046;-70
2022/02/12 04:21:59;;;;;;;36.43;24.50;;;;;;;;;;4994026;28;20023;-70
2022/02/12 04:24:25;;;;;;;35.40;23.07;;;;;;;;;;4992630;28;20034;-70
2022/02/12 04:26:51;;;;;;;33.27;23.27;;;;;;;;;;4992678;28;20026;-70
2022/02/12 04:29:32;;;;;;;34.80;21.83;;;;;;;;;;4992557;28;20050;-70
2022/02/12 04:31:58;;;;;;;33.97;21.77;;;;;;;;;;4993859;28;20026;-70
2022/02/12 04:34:24;;;;;;;28.67;20.20;;;;;;;;;;4992926;28;20037;-70
2022/02/12 04:36:51;;;;;;;30.73;20.07;;;;;;;;;;4982759;28;20489;-70
2022/02/12 04:39:17;;;;;;;27.40;18.47;;;;;;;;;;4977494;28;20384;-70
2022/02/12 04:41:43;;;;;;;32.20;20.57;;;;;;;;;;4993418;28;20030;-70
2022/02/12 04:44:11;;;;;;;31.93;20.13;;;;;;;;;;4992779;28;20113;-70
2022/02/12 04:46:38;;;;;;;31.30;20.73;;;;;;;;;;4994124;28;20395;-70
2022/02/12 04:49:05;;;;;;;35.17;20.80;;;;;;;;;;4992120;28;20061;-70
2022/02/12 04:51:31;;;;;;;30.70;20.03;;;;;;;;;;4993304;28;20058;-70
2022/02/12 04:53:58;;;;;;;34.13;21.07;;;;;;;;;;4992179;28;20033;-70
2022/02/12 04:56:25;;;;;;;36.00;21.93;;;;;;;;;;4980804;28;20027;-70
2022/02/12 04:58:51;;;;;;;31.97;21.30;;;;;;;;;;4991234;28;20491;-70
2022/02/12 05:01:20;;;;;;;30.30;21.27;;;;;;;;;;4992583;28;20042;-70
2022/02/12 05:03:50;;;;;;;32.10;22.70;;;;;;;;;;4993338;28;20019;-70
2022/02/12 05:06:22;;;;;;;33.23;22.00;;;;;;;;;;4992356;28;20045;-70
2022/02/12 05:08:48;;;;;;;36.70;23.07;;;;;;;;;;4993574;28;20095;-70
2022/02/12 05:11:14;;;;;;;36.90;22.93;;;;;;;;;;4991735;28;20030;-70
2022/02/12 05:13:40;;;;;;;35.83;23.13;;;;;;;;;;4993008;28;20483;-71
2022/02/12 05:16:07;;;;;;;34.73;22.30;;;;;;;;;;4973786;28;20499;-71
2022/02/12 05:18:33;;;;;;;34.13;23.57;;;;;;;;;;4973420;28;20039;-70
2022/02/12 05:20:59;;;;;;;34.67;24.50;;;;;;;;;;4989079;28;20487;-70
2022/02/12 05:23:25;;;;;;;38.70;24.80;;;;;;;;;;4991194;28;20034;-70
2022/02/12 05:25:52;;;;;;;39.60;24.47;;;;;;;;;;4991760;28;20031;-70
2022/02/12 05:28:18;;;;;;;36.27;22.93;;;;;;;;;;4992553;28;20551;-70
2022/02/12 05:30:44;;;;;;;39.97;24.57;;;;;;;;;;4991563;28;20054;-71
2022/02/12 05:33:11;;;;;;;35.07;23.27;;;;;;;;;;4991936;28;20033;-70
2022/02/12 05:35:37;;;;;;;42.53;24.17;;;;;;;;;;4978183;28;20033;-70
2022/02/12 05:38:03;;;;;;;34.83;22.83;;;;;;;;;;4973434;28;20034;-70
2022/02/12 05:40:29;;;;;;;35.87;22.87;;;;;;;;;;4973134;28;20047;-70
2022/02/12 05:42:56;;;;;;;37.03;23.13;;;;;;;;;;4973466;28;20042;-70
2022/02/12 05:45:22;;;;;;;36.03;22.73;;;;;;;;;;4983295;28;20476;-70
2022/02/12 05:47:48;;;;;;;37.43;23.67;;;;;;;;;;4992362;28;20031;-70
2022/02/12 05:50:14;;;;;;;34.97;22.27;;;;;;;;;;4991227;28;20030;-70
2022/02/12 05:52:40;;;;;;;38.87;22.97;;;;;;;;;;4991753;28;20037;-70
2022/02/12 05:55:06;;;;;;;34.83;22.73;;;;;;;;;;4982025;28;20042;-70
2022/02/12 05:57:32;;;;;;;36.00;22.77;;;;;;;;;;4972929;28;20022;-70
2022/02/12 05:59:58;;;;;;;35.50;21.70;;;;;;;;;;4978944;28;20480;-71
2022/02/12 06:02:24;;;;;;;34.43;22.57;;;;;;;;;;4992153;28;20030;-70
2022/02/12 06:04:50;;;;;;;31.00;21.23;;;;;;;;;;4991090;28;20027;-70
2022/02/12 06:07:16;;;;;;;38.00;22.97;;;;;;;;;;4992401;28;20080;-71
2022/02/12 06:09:42;;;;;;;31.27;22.07;;;;;;;;;;4990805;28;20042;-71
2022/02/12 06:12:09;;;;;;;33.67;22.00;;;;;;;;;;4992312;28;20030;-71
2022/02/12 06:14:35;;;;;;;33.77;21.67;;;;;;;;;;4990890;28;20061;-70
2022/02/12 06:17:01;;;;;;;35.00;21.53;;;;;;;;;;4990759;28;20476;-70
2022/02/12 06:19:27;;;;;;;33.77;22.17;;;;;;;;;;4989604;28;20141;-70
2022/02/12 06:21:54;;;;;;;33.17;22.37;;;;;;;;;;4992004;28;20054;-70
2022/02/12 06:24:20;;;;;;;34.57;22.60;;;;;;;;;;4990777;28;20041;-70
2022/02/12 06:26:51;;;;;;;36.33;22.30;;;;;;;;;;4991569;28;20030;-70
2022/02/12 06:29:18;;;;;;;32.03;20.67;;;;;;;;;;4990278;28;20054;-71
2022/02/12 06:31:44;;;;;;;29.60;19.73;;;;;;;;;;4990505;28;20464;-70
2022/02/12 06:34:10;;;;;;;32.00;21.63;;;;;;;;;;4991422;28;20099;-70
2022/02/12 06:36:36;;;;;;;31.03;20.70;;;;;;;;;;4990268;28;20441;-70
2022/02/12 06:39:03;;;;;;;29.97;20.33;;;;;;;;;;4991511;28;20056;-70
2022/02/12 06:41:29;;;;;;;29.77;20.83;;;;;;;;;;4990555;28;20058;-70
2022/02/12 06:43:55;;;;;;;30.97;20.27;;;;;;;;;;4991600;28;20027;-70
2022/02/12 06:46:21;;;;;;;34.80;20.83;;;;;;;;;;4990632;28;20026;-70
2022/02/12 06:48:47;;;;;;;27.97;18.60;;;;;;;;;;4990593;28;20107;-70
2022/02/12 06:51:15;;;;;;;29.13;18.13;;;;;;;;;;4990285;28;20034;-70
2022/02/12 06:53:42;;;;;;;30.43;18.33;;;;;;;;;;4990095;28;20050;-70
2022/02/12 06:56:08;;;;;;;27.60;17.57;;;;;;;;;;4985611;28;20093;-70
2022/02/12 06:58:34;;;;;;;27.23;18.03;;;;;;;;;;4991240;28;20030;-70
2022/02/12 07:01:00;;;;;;;25.67;17.30;;;;;;;;;;4985079;28;20034;-70
2022/02/12 07:03:26;;;;;;;29.50;17.47;;;;;;;;;;4992844;28;20061;-70
2022/02/12 07:05:52;;;;;;;26.23;16.97;;;;;;;;;;4990479;28;20079;-70
2022/02/12 07:08:18;;;;;;;29.23;18.43;;;;;;;;;;4992400;28;20400;-70
2022/02/12 07:10:44;;;;;;;30.70;18.10;;;;;;;;;;4988249;28;20037;-71
2022/02/12 07:13:12;;;;;;;24.90;17.60;;;;;;;;;;4991233;28;20062;-70
2022/02/12 07:15:38;;;;;;;24.97;16.37;;;;;;;;;;4988791;28;20030;-70
2022/02/12 07:18:04;;;;;;;25.47;16.43;;;;;;;;;;4988588;28;20034;-70
2022/02/12 07:20:30;;;;;;;26.00;16.33;;;;;;;;;;4989544;28;20034;-70
2022/02/12 07:22:56;;;;;;;24.83;15.70;;;;;;;;;;4989609;28;20484;-70
2022/02/12 07:25:22;;;;;;;26.43;16.00;;;;;;;;;;4989082;28;20027;-70
2022/02/12 07:27:48;;;;;;;24.97;14.23;;;;;;;;;;4990589;28;20023;-70
2022/02/12 07:30:15;;;;;;;21.60;14.87;;;;;;;;;;4982837;28;20057;-70
2022/02/12 07:32:41;;;;;;;24.90;15.50;;;;;;;;;;4971669;28;20388;-70
2022/02/12 07:35:09;;;;;;;25.43;15.70;;;;;;;;;;4974182;28;20388;-70
2022/02/12 07:37:37;;;;;;;24.93;15.03;;;;;;;;;;4981328;28;20035;-70
2022/02/12 07:40:04;;;;;;;20.60;14.00;;;;;;;;;;4977316;28;20042;-70
2022/02/12 07:42:30;;;;;;;23.83;16.47;;;;;;;;;;4994022;28;20543;-70
2022/02/12 07:44:56;;;;;;;21.43;15.17;;;;;;;;;;4992595;28;20046;-70
2022/02/12 07:47:22;;;;;;;25.20;15.13;;;;;;;;;;4974299;28;20027;-71
2022/02/12 07:49:48;;;;;;;28.33;16.80;;;;;;;;;;4975534;28;20023;-71
2022/02/12 07:52:14;;;;;;;26.57;16.23;;;;;;;;;;4994161;28;20561;-70
2022/02/12 07:54:40;;;;;;;26.20;15.87;;;;;;;;;;4993240;28;20026;-70
2022/02/12 07:57:06;;;;;;;22.77;15.63;;;;;;;;;;4974715;28;20035;-71
2022/02/12 07:59:32;;;;;;;26.60;14.93;;;;;;;;;;4991402;28;20542;-70
2022/02/12 08:01:58;;;;;;;23.73;15.57;;;;;;;;;;4992279;28;20070;-71
2022/02/12 08:04:24;;;;;;;25.07;14.67;;;;;;;;;;4993381;28;20069;-71
2022/02/12 08:09:35;;;;;;;25.25;15.18;;;;;;;;;;4974395;28;20077;-70
2022/02/12 08:12:13;;;;;;;25.50;14.50;;;;;;;;;;4992522;28;20057;-70
2022/02/12 08:14:43;;;;;;;22.80;14.83;;;;;;;;;;4992192;28;20022;-70
2022/02/12 08:17:10;;;;;;;22.63;14.50;;;;;;;;;;4993560;28;20087;-70
2022/02/12 08:19:40;;;;;;;24.97;14.63;;;;;;;;;;4992472;28;20420;-71
2022/02/12 08:22:06;;;;;;;20.10;11.27;;;;;;;;;;4992906;28;20502;-71
2022/02/12 08:24:32;;;;;;;21.83;12.13;;;;;;;;;;4994014;28;20429;-71
2022/02/12 08:26:59;;;;;;;17.50;12.40;;;;;;;;;;4991628;28;20068;-70
2022/02/12 08:29:28;;;;;;;23.03;13.10;;;;;;;;;;4991814;28;20053;-70
2022/02/12 08:31:54;;;;;;;19.20;12.30;;;;;;;;;;4992283;28;20468;-70
2022/02/12 08:34:21;;;;;;;19.30;13.07;;;;;;;;;;4993729;28;20030;-70
2022/02/12 08:36:47;;;;;;;22.97;13.40;;;;;;;;;;4992116;28;20046;-71
2022/02/12 08:39:44;;;;;;;21.43;13.27;;;;;;;;;;4993456;28;20026;-71
2022/02/12 08:42:11;;;;;;;20.87;12.63;;;;;;;;;;4992384;28;20105;-70
2022/02/12 08:44:40;;;;;;;20.63;12.47;;;;;;;;;;4983926;28;20041;-71
2022/02/12 08:47:06;;;;;;;17.83;10.13;;;;;;;;;;4974136;28;20035;-70
2022/02/12 08:49:32;;;;;;;13.47;8.00;;;;;;;;;;4973754;28;20106;-71
2022/02/12 08:51:58;;;;;;;11.47;6.87;;;;;;;;;;4989012;28;20027;-70
2022/02/12 08:54:24;;;;;;;12.27;7.83;;;;;;;;;;4993642;28;20123;-71
2022/02/12 08:56:50;;;;;;;14.07;7.40;;;;;;;;;;4992288;28;20030;-71
2022/02/12 09:02:19;;;;;;;15.63;6.40;;;;;;;;;;4989941;28;20045;-70
2022/02/12 09:04:45;;;;;;;12.53;6.47;;;;;;;;;;4993110;28;20030;-70
2022/02/12 09:07:15;;;;;;;14.97;5.87;;;;;;;;;;4992016;28;20034;-71
2022/02/12 09:09:42;;;;;;;14.50;6.67;;;;;;;;;;4988353;28;20480;-71
2022/02/12 09:12:09;;;;;;;9.23;6.13;;;;;;;;;;4985010;28;20090;-70
2022/02/12 09:14:35;;;;;;;9.87;5.60;;;;;;;;;;4987024;28;20084;-70
2022/02/12 09:17:01;;;;;;;10.90;6.20;;;;;;;;;;4973700;28;20037;-70
2022/02/12 09:19:27;;;;;;;10.43;5.60;;;;;;;;;;4978524;28;20030;-70
2022/02/12 09:21:53;;;;;;;9.90;5.60;;;;;;;;;;4973268;28;20038;-70
2022/02/12 09:24:19;;;;;;;9.97;5.47;;;;;;;;;;4989810;28;20099;-70
2022/02/12 09:26:46;;;;;;;11.40;7.00;;;;;;;;;;4990762;28;20066;-70
2022/02/12 09:29:12;;;;;;;9.27;6.50;;;;;;;;;;4991618;28;20107;-70
2022/02/12 09:31:38;;;;;;;10.87;5.70;;;;;;;;;;4991379;28;20023;-70
2022/02/12 09:34:05;;;;;;;9.27;5.30;;;;;;;;;;4991643;28;20038;-70
2022/02/12 09:36:32;;;;;;;8.13;4.97;;;;;;;;;;4992004;28;20439;-71
2022/02/12 09:38:58;;;;;;;4.73;3.10;;;;;;;;;;4991287;28;20042;-71
2022/02/12 09:41:26;;;;;;;11.10;4.77;;;;;;;;;;4992435;28;20073;-70
2022/02/12 09:43:55;;;;;;;8.60;5.20;;;;;;;;;;4991068;28;20468;-70
2022/02/12 09:46:24;;;;;;;7.40;5.27;;;;;;;;;;4992087;28;20060;-70
2022/02/12 09:48:52;;;;;;;13.13;5.17;;;;;;;;;;4989864;28;20030;-70
2022/02/12 09:51:18;;;;;;;9.80;3.70;;;;;;;;;;4991697;28;20038;-70
2022/02/12 09:53:45;;;;;;;9.53;4.97;;;;;;;;;;4990823;28;20027;-69
2022/02/12 09:56:12;;;;;;;7.50;3.60;;;;;;;;;;4975007;28;20092;-70
2022/02/12 09:58:38;;;;;;;4.77;3.23;;;;;;;;;;4973755;28;20396;-70
2022/02/12 10:01:04;;;;;;;5.67;3.97;;;;;;;;;;4992055;28;20095;-69
2022/02/12 10:03:31;;;;;;;5.63;3.40;;;;;;;;;;4990645;28;20472;-70
2022/02/12 10:05:58;;;;;;;7.30;3.27;;;;;;;;;;4993313;28;20041;-70
2022/02/12 10:08:24;;;;;;;3.90;2.83;;;;;;;;;;4983226;28;20026;-70
2022/02/12 10:10:51;;;;;;;6.57;3.97;;;;;;;;;;4975386;28;20117;-70
2022/02/12 10:13:19;;;;;;;4.83;3.07;;;;;;;;;;4982555;28;20103;-70
2022/02/12 10:15:47;;;;;;;4.50;3.37;;;;;;;;;;4985803;28;20087;-70
2022/02/12 10:18:13;;;;;;;6.47;3.83;;;;;;;;;;4981102;28;20121;-69
2022/02/12 10:20:40;;;;;;;7.90;3.60;;;;;;;;;;4982762;28;20034;-70
2022/02/12 10:23:07;;;;;;;5.97;3.40;;;;;;;;;;4981817;28;20022;-70
2022/02/12 10:25:34;;;;;;;7.57;3.40;;;;;;;;;;4986599;28;20034;-70
2022/02/12 10:28:01;;;;;;;6.23;3.20;;;;;;;;;;4981838;28;20108;-70
2022/02/12 10:30:29;;;;;;;6.37;3.23;;;;;;;;;;4982765;28;20053;-69
2022/02/12 10:32:57;;;;;;;6.07;3.40;;;;;;;;;;4982054;28;20038;-69
2022/02/12 10:35:24;;;;;;;6.27;3.47;;;;;;;;;;4982097;28;20034;-70
2022/02/12 10:37:50;;;;;;;4.77;3.20;;;;;;;;;;4982101;28;20026;-70
2022/02/12 10:40:17;;;;;;;6.10;2.80;;;;;;;;;;4985065;28;20537;-70
2022/02/12 10:42:46;;;;;;;3.67;2.93;;;;;;;;;;4981617;28;20127;-69
2022/02/12 10:45:14;;;;;;;5.83;3.30;;;;;;;;;;4979629;28;20026;-69
2022/02/12 10:47:44;;;;;;;6.53;2.97;;;;;;;;;;4989619;28;20014;-70
2022/02/12 10:50:10;;;;;;;7.93;2.97;;;;;;;;;;4983152;28;20490;-70
2022/02/12 10:52:41;;;;;;;3.70;2.27;;;;;;;;;;4984400;28;20023;-70
2022/02/12 10:55:07;;;;;;;5.50;3.20;;;;;;;;;;4982819;28;20367;-70
2022/02/12 10:57:38;;;;;;;7.67;2.60;;;;;;;;;;4980888;28;20038;-70
2022/02/12 11:00:06;;;;;;;5.60;2.53;;;;;;;;;;4981239;28;20088;-70
2022/02/12 11:02:33;;;;;;;3.80;2.13;;;;;;;;;;4986278;28;20045;-71
2022/02/12 11:04:59;;;;;;;5.37;2.50;;;;;;;;;;4981161;28;20392;-71
2022/02/12 11:07:26;;;;;;;4.93;2.23;;;;;;;;;;4985825;28;20140;-71
2022/02/12 11:09:53;;;;;;;4.93;2.40;;;;;;;;;;4982642;28;20487;-70
2022/02/12 11:12:22;;;;;;;4.23;2.80;;;;;;;;;;4984731;28;20396;-70
2022/02/12 11:14:48;;;;;;;3.63;2.10;;;;;;;;;;4985646;28;20105;-70
2022/02/12 11:17:16;;;;;;;4.10;2.33;;;;;;;;;;4984219;28;20693;-71
2022/02/12 11:19:43;;;;;;;3.53;2.15;;;;;;;;;;4986302;28;20048;-70
2022/02/12 11:22:10;;;;;;;1.67;1.53;;;;;;;;;;4986239;28;20034;-71
2022/02/12 11:24:37;;;;;;;2.85;1.90;;;;;;;;;;4979805;28;20388;-70
2022/02/12 11:27:17;;;;;;;3.40;2.00;;;;;;;;;;4985759;28;20041;-72
2022/02/12 11:29:44;;;;;;;5.10;2.77;;;;;;;;;;4986453;28;20051;-70
2022/02/12 11:32:15;;;;;;;3.75;2.30;;;;;;;;;;4985658;28;20530;-70
2022/02/12 11:34:53;;;;;;;7.82;2.85;;;;;;;;;;4987394;28;20105;-70
2022/02/12 11:37:19;;;;;;;4.13;2.30;;;;;;;;;;4990851;28;20026;-70
2022/02/12 11:40:04;;;;;;;3.85;2.25;;;;;;;;;;4988925;28;20039;-70
2022/02/12 11:42:39;;;;;;;3.35;2.08;;;;;;;;;;4989670;28;20015;-70
2022/02/12 11:45:05;;;;;;;;;;;;;;;;;;4989101;28;20480;-70
2022/02/12 11:47:31;;;;;;;4.85;2.22;;;;;;;;;;4989796;28;19913;-68
2022/02/12 11:50:14;;;;;;;6.33;3.10;;;;;;;;;;4988269;28;20039;-68
2022/02/12 11:52:40;;;;;;;2.90;2.43;;;;;;;;;;4990156;28;20022;-68
2022/02/12 11:55:06;;;;;;;6.40;2.60;;;;;;;;;;4988785;28;20407;-68
2022/02/12 11:57:32;;;;;;;4.33;2.57;;;;;;;;;;4986864;28;20434;-68
2022/02/12 12:00:01;;;;;;;5.00;2.95;;;;;;;;;;4980435;28;20146;-68
2022/02/12 12:02:36;;;;;;;4.28;2.60;;;;;;;;;;4979138;28;20476;-67
2022/02/12 12:05:22;;;;;;;3.92;2.53;;;;;;;;;;4977393;28;20383;-67
2022/02/12 12:08:00;;;;;;;4.10;2.80;;;;;;;;;;4989759;28;20026;-67
2022/02/12 12:10:30;;;;;;;4.05;2.33;;;;;;;;;;4983483;28;20028;-68
2022/02/12 12:12:59;;;;;;;4.10;2.55;;;;;;;;;;4989811;28;20613;-68
2022/02/12 12:15:29;;;;;;;4.10;2.25;;;;;;;;;;4988858;28;20083;-69
2022/02/12 12:17:56;;;;;;;4.40;2.60;;;;;;;;;;4990444;28;20101;-69
2022/02/12 12:20:31;;;;;;;4.97;2.53;;;;;;;;;;4989068;28;20052;-68
2022/02/12 12:23:01;;;;;;;4.05;2.85;;;;;;;;;;4990306;28;20019;-69
2022/02/12 12:25:27;;;;;;;4.85;2.45;;;;;;;;;;4988572;28;20033;-68
2022/02/12 12:27:53;;;;;;;4.95;2.53;;;;;;;;;;4981590;28;20379;-68
2022/02/12 12:33:03;;;;;;;5.07;3.42;;;;;;;;;;4993228;28;20114;-68
2022/02/12 12:35:29;;;;;;;4.20;3.03;;;;;;;;;;4991834;28;20022;-68
2022/02/12 12:37:57;;;;;;;3.80;2.67;;;;;;;;;;4992952;28;20031;-69
2022/02/12 12:40:30;;;;;;;6.05;2.58;;;;;;;;;;4983675;28;20045;-68
2022/02/12 12:43:06;;;;;;;4.30;2.75;;;;;;;;;;4974268;28;20081;-69
2022/02/12 12:45:42;;;;;;;6.50;3.03;;;;;;;;;;4982456;28;20046;-68
2022/02/12 12:48:09;;;;;;;7.35;3.03;;;;;;;;;;4993378;28;20029;-68
2022/02/12 12:50:36;;;;;;;6.80;2.95;;;;;;;;;;4992119;28;20480;-68
2022/02/12 12:53:06;;;;;;;3.40;2.58;;;;;;;;;;4987545;28;20030;-68
2022/02/12 12:55:32;;;;;;;5.43;3.15;;;;;;;;;;4982247;28;20420;-68
2022/02/12 12:57:58;;;;;;;3.08;2.13;;;;;;;;;;4988054;28;20065;-69
2022/02/12 13:00:25;;;;;;;3.95;2.35;;;;;;;;;;4980020;28;20514;-69
2022/02/12 13:02:57;;;;;;;7.90;2.60;;;;;;;;;;4993408;28;20027;-68
2022/02/12 13:05:27;;;;;;;3.80;2.55;;;;;;;;;;4991801;28;20069;-69
2022/02/12 13:07:54;;;;;;;7.30;2.97;;;;;;;;;;4975590;28;20039;-69
2022/02/12 13:10:25;;;;;;;4.68;2.80;;;;;;;;;;4979331;28;20091;-68
2022/02/12 13:12:51;;;;;;;3.80;2.70;;;;;;;;;;4993124;28;20023;-68
2022/02/12 13:15:24;;;;;;;5.40;2.35;;;;;;;;;;4984376;28;20034;-69
2022/02/12 13:17:53;;;;;;;3.65;2.45;;;;;;;;;;4973799;28;20027;-68
2022/02/12 13:20:20;;;;;;;3.20;2.13;;;;;;;;;;4978649;28;20049;-68
2022/02/12 13:22:52;;;;;;;5.18;2.97;;;;;;;;;;4991880;28;20041;-69
2022/02/12 13:25:18;;;;;;;3.85;2.58;;;;;;;;;;4985196;28;20042;-69
2022/02/12 13:27:45;;;;;;;4.68;2.80;;;;;;;;;;4973592;28;20027;-69
2022/02/12 13:30:12;;;;;;;4.70;3.13;;;;;;;;;;4976814;28;20119;-69
2022/02/12 13:32:40;;;;;;;4.18;2.60;;;;;;;;;;4991013;28;20053;-69
2022/02/12 13:35:07;;;;;;;5.15;2.58;;;;;;;;;;4991788;28;20046;-68
2022/02/12 13:37:41;;;;;;;4.30;2.65;;;;;;;;;;5000327;28;20045;-68
2022/02/12 13:40:08;;;;;;;3.10;2.28;;;;;;;;;;5003389;28;20044;-69
2022/02/12 13:42:34;;;;;;;4.47;2.80;;;;;;;;;;4973093;28;20031;-69
2022/02/12 13:45:02;;;;;;;4.00;2.53;;;;;;;;;;4975451;28;20533;-69
2022/02/12 13:47:28;;;;;;;7.53;2.35;;;;;;;;;;4991151;28;20025;-69
2022/02/12 13:49:54;;;;;;;4.63;2.40;;;;;;;;;;4998094;28;20030;-69
2022/02/12 13:52:21;;;;;;;5.22;2.60;;;;;;;;;;4991127;28;20432;-68
2022/02/12 13:55:00;;;;;;;3.65;2.60;;;;;;;;;;4989330;28;20117;-69
2022/02/12 13:57:27;;;;;;;3.22;2.28;;;;;;;;;;4992217;28;20031;-69
2022/02/12 13:59:53;;;;;;;3.90;2.38;;;;;;;;;;4990788;28;20034;-68
2022/02/12 14:02:19;;;;;;;3.15;2.38;;;;;;;;;;4992542;28;20092;-68
2022/02/12 14:04:45;;;;;;;6.75;3.58;;;;;;;;;;4989990;28;20041;-68
2022/02/12 14:07:11;;;;;;;4.60;2.92;;;;;;;;;;4991950;28;20041;-66
2022/02/12 14:09:37;;;;;;;3.08;2.40;;;;;;;;;;5035617;28;20390;-75
2022/02/12 14:12:03;;;;;;;3.60;2.50;;;;;;;;;;4983188;28;20041;-75
2022/02/12 14:14:29;;;;;;;3.17;2.58;;;;;;;;;;4991892;28;20023;-74
2022/02/12 14:16:55;;;;;;;2.42;2.00;;;;;;;;;;4981029;28;20035;-74
2022/02/12 14:19:21;;;;;;;3.35;2.40;;;;;;;;;;4971927;28;20506;-74
2022/02/12 14:21:47;;;;;;;3.85;2.25;;;;;;;;;;4972384;28;20023;-74
2022/02/12 14:24:13;;;;;;;4.65;2.25;;;;;;;;;;4972652;28;20031;-74
2022/02/12 14:26:39;;;;;;;4.00;2.17;;;;;;;;;;4978769;28;20022;-74
2022/02/12 14:29:06;;;;;;;6.85;2.42;;;;;;;;;;4991589;28;20104;-74
2022/02/12 14:31:32;;;;;;;4.80;2.45;;;;;;;;;;4979067;28;20030;-74
2022/02/12 14:33:58;;;;;;;3.55;2.67;;;;;;;;;;4972383;28;20514;-75
2022/02/12 14:36:25;;;;;;;5.80;3.65;;;;;;;;;;4976296;28;20139;-74
2022/02/12 14:38:52;;;;;;;5.45;3.50;;;;;;;;;;4991871;28;20533;-74
2022/02/12 14:41:19;;;;;;;4.70;3.00;;;;;;;;;;4990211;28;20038;-74
2022/02/12 14:43:45;;;;;;;5.20;2.75;;;;;;;;;;4989720;28;20030;-75
2022/02/12 14:46:11;;;;;;;3.38;2.60;;;;;;;;;;4990586;28;20027;-74
2022/02/12 14:48:38;;;;;;;4.10;3.03;;;;;;;;;;4991542;28;20600;-75